createdAt,value
2022-11-04T00:01:17.476Z,72.80
2022-11-04T00:03:44.239Z,73.20
2022-11-04T00:06:11.148Z,73.50
2022-11-04T00:08:37.894Z,73.80
2022-11-04T00:11:23.271Z,73.70
2022-11-04T00:13:50.264Z,73.60
2022-11-04T00:16:35.876Z,73.30
2022-11-04T00:19:02.733Z,72.90
2022-11-04T00:21:48.422Z,73.10
2022-11-04T00:24:34.006Z,73.30
2022-11-04T00:27:19.448Z,73.60
2022-11-04T00:29:46.210Z,73.80
2022-11-04T00:32:42.059Z,73.90
2022-11-04T00:35:09.782Z,73.90
2022-11-04T00:37:41.231Z,73.90
2022-11-04T00:40:10.232Z,73.70
2022-11-04T00:42:37.208Z,73.70
2022-11-04T00:45:05.186Z,73.70
2022-11-04T00:47:32.122Z,73.60
2022-11-04T00:49:58.993Z,73.30
2022-11-04T00:52:25.752Z,73.20
2022-11-04T00:54:52.566Z,73.20
2022-11-04T00:57:19.374Z,73.20
2022-11-04T00:59:46.120Z,73.20
2022-11-04T01:02:13.925Z,73.30
2022-11-04T01:04:40.819Z,73.30
2022-11-04T01:07:07.850Z,73.10
2022-11-04T01:09:34.641Z,73.10
2022-11-04T01:12:01.418Z,73.00
2022-11-04T01:14:28.207Z,73.00
2022-11-04T01:16:55.043Z,72.90
2022-11-04T01:19:21.985Z,73.00
2022-11-04T01:21:52.841Z,72.90
2022-11-04T01:24:19.887Z,72.70
2022-11-04T01:26:46.678Z,72.60
2022-11-04T01:29:13.445Z,72.60
2022-11-04T01:31:40.478Z,72.70
2022-11-04T01:34:08.100Z,72.50
2022-11-04T01:36:34.915Z,72.70
2022-11-04T01:39:01.701Z,72.60
2022-11-04T01:41:31.367Z,72.80
2022-11-04T01:44:24.141Z,72.70
2022-11-04T01:46:53.996Z,72.80
2022-11-04T01:49:29.334Z,72.70
2022-11-04T01:52:05.463Z,72.70
2022-11-04T01:54:33.919Z,72.50
2022-11-04T01:57:02.526Z,72.50
2022-11-04T01:59:36.043Z,72.50
2022-11-04T02:02:03.690Z,72.30
2022-11-04T02:04:31.736Z,72.10
2022-11-04T02:07:02.299Z,72.20
2022-11-04T02:09:31.397Z,72.00
2022-11-04T02:12:17.014Z,72.10
2022-11-04T02:14:46.511Z,72.20
2022-11-04T02:17:13.212Z,72.10
2022-11-04T02:20:14.739Z,72.00
2022-11-04T02:23:12.851Z,71.90
2022-11-04T02:25:52.294Z,71.70
2022-11-04T02:28:22.150Z,71.80
2022-11-04T02:31:15.413Z,71.80
2022-11-04T02:34:21.280Z,71.60
2022-11-04T02:37:12.829Z,71.50
2022-11-04T02:39:51.527Z,71.60
2022-11-04T02:42:56.344Z,71.50
2022-11-04T02:45:50.511Z,71.60
2022-11-04T02:48:23.015Z,71.70
2022-11-04T02:51:10.028Z,71.80
2022-11-04T02:53:45.508Z,71.80
2022-11-04T02:56:14.987Z,71.50
2022-11-04T02:59:15.429Z,71.60
2022-11-04T03:01:44.942Z,71.70
2022-11-04T03:04:15.494Z,71.50
2022-11-04T03:06:45.428Z,71.40
2022-11-04T03:09:15.213Z,71.20
2022-11-04T03:11:46.923Z,71.00
2022-11-04T03:14:21.094Z,70.80
2022-11-04T03:16:52.047Z,70.80
2022-11-04T03:19:36.306Z,70.90
2022-11-04T03:22:20.882Z,70.80
2022-11-04T03:24:49.278Z,70.80
2022-11-04T03:27:40.881Z,70.80
2022-11-04T03:33:17.835Z,70.80
2022-11-04T03:35:44.751Z,70.80
2022-11-04T03:38:11.549Z,70.60
2022-11-04T03:40:38.573Z,70.50
2022-11-04T03:43:19.641Z,70.50
2022-11-04T03:45:46.493Z,70.50
2022-11-04T03:48:13.471Z,70.20
2022-11-04T03:50:45.721Z,70.20
2022-11-04T03:53:14.398Z,70.10
2022-11-04T03:56:06.304Z,70.20
2022-11-04T03:59:11.560Z,70.10
2022-11-04T04:01:49.527Z,70.20
2022-11-04T04:04:19.120Z,70.40
2022-11-04T04:06:46.530Z,70.40
2022-11-04T04:09:24.203Z,70.40
2022-11-04T04:12:10.456Z,70.20
2022-11-04T04:14:49.601Z,70.20
2022-11-04T04:17:39.274Z,70.00
2022-11-04T04:20:12.758Z,70.00
2022-11-04T04:23:03.728Z,70.00
2022-11-04T04:25:51.545Z,69.80
2022-11-04T04:28:19.571Z,69.90
2022-11-04T04:30:46.743Z,70.00
2022-11-04T04:33:18.689Z,70.00
2022-11-04T04:35:56.815Z,69.90
2022-11-04T04:38:47.496Z,70.00
2022-11-04T04:41:38.145Z,70.00
2022-11-04T04:44:44.895Z,69.80
2022-11-04T04:47:20.005Z,69.70
2022-11-04T04:49:54.865Z,69.60
2022-11-04T04:52:23.410Z,69.80
2022-11-04T04:54:50.184Z,69.60
2022-11-04T04:57:17.292Z,69.70
2022-11-04T04:59:44.094Z,69.90
2022-11-04T05:02:11.099Z,69.80
2022-11-04T05:04:38.102Z,69.90
2022-11-04T05:07:06.833Z,69.90
2022-11-04T05:09:33.750Z,70.20
2022-11-04T05:12:00.534Z,70.10
2022-11-04T05:14:27.451Z,70.20
2022-11-04T05:16:54.223Z,70.40
2022-11-04T05:19:21.004Z,70.60
2022-11-04T05:21:47.826Z,70.60
2022-11-04T05:24:14.709Z,70.60
2022-11-04T05:26:41.556Z,70.70
2022-11-04T05:29:09.813Z,70.60
2022-11-04T05:31:36.619Z,70.70
2022-11-04T05:34:04.481Z,70.50
2022-11-04T05:36:33.131Z,70.50
2022-11-04T05:38:59.904Z,70.60
2022-11-04T05:41:27.268Z,70.60
2022-11-04T05:43:59.507Z,70.60
2022-11-04T05:46:26.929Z,70.70
2022-11-04T05:48:54.586Z,70.70
2022-11-04T05:51:24.256Z,70.60
2022-11-04T05:53:51.346Z,70.70
2022-11-04T05:56:18.929Z,70.70
2022-11-04T05:58:45.662Z,70.60
2022-11-04T06:01:29.108Z,70.50
2022-11-04T06:03:57.301Z,70.50
2022-11-04T06:06:25.547Z,70.50
2022-11-04T06:08:52.733Z,70.50
2022-11-04T06:11:20.627Z,70.60
2022-11-04T06:13:47.540Z,70.70
2022-11-04T06:16:14.530Z,70.60
2022-11-04T06:18:41.344Z,70.60
2022-11-04T06:21:15.187Z,70.60
2022-11-04T06:23:42.519Z,70.40
2022-11-04T06:26:10.056Z,70.20
2022-11-04T06:28:37.015Z,70.00
2022-11-04T06:31:06.021Z,70.00
2022-11-04T06:33:36.698Z,69.90
2022-11-04T06:36:06.622Z,69.60
2022-11-04T06:38:34.866Z,69.40
2022-11-04T06:41:01.724Z,69.20
2022-11-04T06:43:28.547Z,68.60
2022-11-04T06:45:59.996Z,68.10
2022-11-04T06:48:27.743Z,67.70
2022-11-04T06:50:54.536Z,67.90
2022-11-04T06:53:21.300Z,68.70
2022-11-04T06:55:48.118Z,68.90
2022-11-04T06:58:14.992Z,69.00
2022-11-04T07:00:41.732Z,68.70
2022-11-04T07:03:10.358Z,67.90
2022-11-04T07:05:37.530Z,68.60
2022-11-04T07:08:04.391Z,67.70
2022-11-04T07:10:31.119Z,67.20
2022-11-04T07:12:57.942Z,67.60
2022-11-04T07:15:27.460Z,67.50
2022-11-04T07:17:54.458Z,67.60
2022-11-04T07:20:21.212Z,67.30
2022-11-04T07:22:47.963Z,67.60
2022-11-04T07:25:14.795Z,67.60
2022-11-04T07:27:41.602Z,67.50
2022-11-04T07:30:08.956Z,67.80
2022-11-04T07:32:35.726Z,67.10
2022-11-04T07:35:02.498Z,66.80
2022-11-04T07:37:29.229Z,66.70
2022-11-04T07:39:55.987Z,66.50
2022-11-04T07:42:22.811Z,67.20
2022-11-04T07:44:49.592Z,67.00
2022-11-04T07:47:16.420Z,64.00
2022-11-04T07:49:43.232Z,64.40
2022-11-04T07:52:10.005Z,65.30
2022-11-04T07:54:36.789Z,65.80
2022-11-04T07:57:03.729Z,64.90
2022-11-04T07:59:30.524Z,65.00
2022-11-04T08:01:57.497Z,64.60
2022-11-04T08:04:24.431Z,64.10
2022-11-04T08:06:51.178Z,64.10
2022-11-04T08:09:17.928Z,62.80
2022-11-04T08:11:44.889Z,63.10
2022-11-04T08:14:12.314Z,63.00
2022-11-04T08:16:39.091Z,61.20
2022-11-04T08:19:06.027Z,62.20
2022-11-04T08:21:33.671Z,61.80
2022-11-04T08:24:03.271Z,61.40
2022-11-04T08:26:30.132Z,60.50
2022-11-04T08:28:57.132Z,60.70
2022-11-04T08:31:26.797Z,61.80
2022-11-04T08:33:54.677Z,61.80
2022-11-04T08:36:27.624Z,62.40
2022-11-04T08:38:54.568Z,63.70
2022-11-04T08:41:25.562Z,62.90
2022-11-04T08:43:52.996Z,62.60
2022-11-04T08:46:20.247Z,60.50
2022-11-04T08:48:47.396Z,60.20
2022-11-04T08:51:17.995Z,59.50
2022-11-04T08:53:44.871Z,58.20
2022-11-04T08:56:19.979Z,58.30
2022-11-04T08:58:47.204Z,57.50
2022-11-04T09:01:14.773Z,58.30
2022-11-04T09:03:42.588Z,56.30
2022-11-04T09:06:13.843Z,58.30
2022-11-04T09:08:41.320Z,57.70
2022-11-04T09:11:10.044Z,57.20
2022-11-04T09:13:39.771Z,57.50
2022-11-04T09:16:09.062Z,56.50
2022-11-04T09:18:35.922Z,57.10
2022-11-04T09:21:04.940Z,56.10
2022-11-04T09:23:32.062Z,57.70
2022-11-04T09:26:03.835Z,57.70
2022-11-04T09:28:30.618Z,56.00
2022-11-04T09:30:57.533Z,57.10
2022-11-04T09:33:24.464Z,57.00
2022-11-04T09:35:57.870Z,56.60
2022-11-04T09:38:25.524Z,57.70
2022-11-04T09:40:53.001Z,57.00
2022-11-04T09:43:46.360Z,56.50
2022-11-04T09:46:14.814Z,56.60
2022-11-04T09:48:49.210Z,56.30
2022-11-04T09:51:39.959Z,56.20
2022-11-04T09:54:23.531Z,57.20
2022-11-04T09:56:53.002Z,56.80
2022-11-04T09:59:34.720Z,56.30
2022-11-04T10:02:19.108Z,56.30
2022-11-04T10:05:07.522Z,57.50
2022-11-04T10:08:09.596Z,57.30
2022-11-04T10:10:46.073Z,57.80
2022-11-04T10:13:17.841Z,57.60
2022-11-04T10:16:08.775Z,56.40
2022-11-04T10:18:41.695Z,57.10
2022-11-04T10:21:26.752Z,58.00
2022-11-04T10:24:02.490Z,58.10
2022-11-04T10:26:34.435Z,57.70
2022-11-04T10:29:23.910Z,58.00
2022-11-04T10:31:54.455Z,58.30
2022-11-04T10:34:28.679Z,57.40
2022-11-04T10:36:56.902Z,57.40
2022-11-04T10:39:29.786Z,56.70
2022-11-04T10:41:58.307Z,55.50
2022-11-04T10:44:30.483Z,56.20
2022-11-04T10:47:00.445Z,56.20
2022-11-04T10:52:48.126Z,56.60
2022-11-04T10:55:41.035Z,56.60
2022-11-04T10:58:23.145Z,57.30
2022-11-04T11:00:50.531Z,57.70
2022-11-04T11:03:33.130Z,58.00
2022-11-04T11:06:19.587Z,57.10
2022-11-04T11:08:47.077Z,56.90
2022-11-04T11:11:16.087Z,58.00
2022-11-04T11:13:45.387Z,56.30
2022-11-04T11:16:27.166Z,57.20
2022-11-04T11:19:17.565Z,55.20
2022-11-04T11:21:46.121Z,56.40
2022-11-04T11:24:20.786Z,56.20
2022-11-04T11:26:49.907Z,55.20
2022-11-04T11:29:29.401Z,56.00
2022-11-04T11:31:58.905Z,54.60
2022-11-04T11:34:33.095Z,55.70
2022-11-04T11:37:03.951Z,55.40
2022-11-04T11:39:32.884Z,54.10
2022-11-04T11:42:06.284Z,54.60
2022-11-04T11:44:47.545Z,53.10
2022-11-04T11:47:38.605Z,53.80
2022-11-04T11:50:11.392Z,52.00
2022-11-04T11:52:40.870Z,52.40
2022-11-04T11:55:19.563Z,52.80
2022-11-04T12:01:06.661Z,51.10
2022-11-04T12:10:00.125Z,50.00
2022-11-04T12:12:39.634Z,49.60
2022-11-04T12:15:29.840Z,49.60
2022-11-04T12:18:22.888Z,51.00
2022-11-04T12:21:04.758Z,51.80
2022-11-04T12:23:45.333Z,51.90
2022-11-04T12:26:24.736Z,50.70
2022-11-04T12:29:00.098Z,50.90
2022-11-04T12:31:48.332Z,52.10
2022-11-04T12:34:29.176Z,50.90
2022-11-04T12:37:01.772Z,50.90
2022-11-04T12:39:29.301Z,51.40
2022-11-04T12:42:23.795Z,50.90
2022-11-04T12:45:28.612Z,51.00
2022-11-04T12:48:02.035Z,51.10
2022-11-04T12:50:47.762Z,50.60
2022-11-04T12:53:51.197Z,51.30
2022-11-04T12:56:20.613Z,51.70
2022-11-04T12:59:27.017Z,50.70
2022-11-04T13:02:04.378Z,51.00
2022-11-04T13:04:45.187Z,50.80
2022-11-04T13:07:20.411Z,50.80
2022-11-04T13:10:03.575Z,50.30
2022-11-04T13:12:36.401Z,50.00
2022-11-04T13:15:13.419Z,51.00
2022-11-04T13:17:41.594Z,50.90
2022-11-04T13:20:13.943Z,48.60
2022-11-04T13:22:45.656Z,48.50
2022-11-04T13:25:15.620Z,48.80
2022-11-04T13:27:47.367Z,47.10
2022-11-04T13:30:22.835Z,47.80
2022-11-04T13:33:08.929Z,45.30
2022-11-04T13:35:59.560Z,44.80
2022-11-04T13:38:31.089Z,45.40
2022-11-04T13:41:32.779Z,45.30
2022-11-04T13:44:13.092Z,46.40
2022-11-04T13:46:40.061Z,46.80
2022-11-04T13:49:19.998Z,47.70
2022-11-04T13:52:00.284Z,48.00
2022-11-04T13:54:38.129Z,47.70
2022-11-04T13:57:15.169Z,48.50
2022-11-04T13:59:44.329Z,47.90
2022-11-04T14:02:11.583Z,49.40
2022-11-04T14:04:43.194Z,49.40
2022-11-04T14:07:12.631Z,49.10
2022-11-04T14:09:42.794Z,49.60
2022-11-04T14:12:17.207Z,49.40
2022-11-04T14:14:45.228Z,50.60
2022-11-04T14:17:33.905Z,50.00
2022-11-04T14:20:30.101Z,50.40
2022-11-04T14:23:00.045Z,50.10
2022-11-04T14:25:31.484Z,50.60
2022-11-04T14:28:10.692Z,50.40
2022-11-04T14:30:43.911Z,50.70
2022-11-04T14:33:35.168Z,50.60
2022-11-04T14:36:13.851Z,50.80
2022-11-04T14:38:41.703Z,51.00
2022-11-04T14:41:13.245Z,51.30
2022-11-04T14:43:44.429Z,52.00
2022-11-04T14:46:17.705Z,52.50
2022-11-04T14:48:52.102Z,52.10
2022-11-04T14:51:27.747Z,52.00
2022-11-04T14:54:05.510Z,52.80
2022-11-04T14:56:32.687Z,52.00
2022-11-04T14:59:07.321Z,51.70
2022-11-04T15:01:39.883Z,51.40
2022-11-04T15:04:14.752Z,51.10
2022-11-04T15:06:54.705Z,52.30
2022-11-04T15:09:35.102Z,52.40
2022-11-04T15:12:31.333Z,52.50
2022-11-04T15:14:59.863Z,52.60
2022-11-04T15:17:31.576Z,52.50
2022-11-04T15:20:01.928Z,52.70
2022-11-04T15:22:30.535Z,52.60
2022-11-04T15:25:01.325Z,52.90
2022-11-04T15:27:29.875Z,52.70
2022-11-04T15:30:02.972Z,52.70
2022-11-04T15:32:30.666Z,52.20
2022-11-04T15:34:58.077Z,52.20
2022-11-04T15:37:26.168Z,51.70
2022-11-04T15:39:56.495Z,51.40
2022-11-04T15:42:45.491Z,52.00
2022-11-04T15:45:30.291Z,52.70
2022-11-04T15:48:24.324Z,52.70
2022-11-04T15:51:03.985Z,52.80
2022-11-04T15:53:34.275Z,52.90
2022-11-04T15:56:01.445Z,53.00
2022-11-04T15:58:28.859Z,53.80
2022-11-04T16:00:56.650Z,53.20
2022-11-04T16:03:24.515Z,53.50
2022-11-04T16:06:04.005Z,53.40
2022-11-04T16:08:32.071Z,53.20
2022-11-04T16:11:13.248Z,53.30
2022-11-04T16:13:40.611Z,53.50
2022-11-04T16:16:21.732Z,54.20
2022-11-04T16:18:52.903Z,54.10
2022-11-04T16:21:31.141Z,54.70
2022-11-04T16:24:20.318Z,54.40
2022-11-04T16:26:48.061Z,54.80
2022-11-04T16:29:27.728Z,54.40
2022-11-04T16:32:24.882Z,54.50
2022-11-04T16:34:57.019Z,54.70
2022-11-04T16:37:25.679Z,55.10
2022-11-04T16:39:52.599Z,55.00
2022-11-04T16:42:20.142Z,55.10
2022-11-04T16:44:49.621Z,54.70
2022-11-04T16:47:18.612Z,55.00
2022-11-04T16:49:45.733Z,55.30
2022-11-04T16:52:18.423Z,55.30
2022-11-04T16:54:47.585Z,55.70
2022-11-04T16:57:15.522Z,55.30
2022-11-04T16:59:42.481Z,55.90
2022-11-04T17:02:21.325Z,55.50
2022-11-04T17:04:48.286Z,55.90
2022-11-04T17:07:15.233Z,56.20
2022-11-04T17:09:42.087Z,56.40
2022-11-04T17:12:09.819Z,55.90
2022-11-04T17:14:36.698Z,55.70
2022-11-04T17:17:04.253Z,55.30
2022-11-04T17:19:34.628Z,55.20
2022-11-04T17:22:04.284Z,55.10
2022-11-04T17:24:31.086Z,54.90
2022-11-04T17:26:57.893Z,54.80
2022-11-04T17:29:24.808Z,54.70
2022-11-04T17:31:53.736Z,54.80
2022-11-04T17:34:23.799Z,54.60
2022-11-04T17:36:50.576Z,54.60
2022-11-04T17:39:17.379Z,55.30
2022-11-04T17:42:02.699Z,54.90
2022-11-04T17:44:29.496Z,54.90
2022-11-04T17:46:57.816Z,55.00
2022-11-04T17:49:25.662Z,55.10
2022-11-04T17:51:55.717Z,55.30
2022-11-04T17:54:24.242Z,55.20
2022-11-04T17:56:51.503Z,54.80
2022-11-04T17:59:18.526Z,54.80
2022-11-04T18:01:46.081Z,54.70
2022-11-04T18:04:17.615Z,54.90
2022-11-04T18:06:44.865Z,55.00
2022-11-04T18:09:12.582Z,55.00
2022-11-04T18:11:58.064Z,56.30
2022-11-04T18:14:24.872Z,56.50
2022-11-04T18:16:51.810Z,56.80
2022-11-04T18:19:21.659Z,56.90
2022-11-04T18:21:49.670Z,56.90
2022-11-04T18:24:16.583Z,57.20
2022-11-04T18:26:45.160Z,57.20
2022-11-04T18:29:11.995Z,57.50
2022-11-04T18:31:48.733Z,57.50
2022-11-04T18:34:19.377Z,57.70
2022-11-04T18:36:48.077Z,57.60
2022-11-04T18:39:17.460Z,57.80
2022-11-04T18:41:45.608Z,57.80
2022-11-04T18:44:18.985Z,58.10
2022-11-04T18:46:46.571Z,58.30
2022-11-04T18:49:14.233Z,58.20
2022-11-04T18:51:41.458Z,58.20
2022-11-04T18:54:10.772Z,58.40
2022-11-04T18:56:38.315Z,58.30
2022-11-04T18:59:08.294Z,58.40
2022-11-04T19:01:35.422Z,58.60
2022-11-04T19:04:02.499Z,58.70
2022-11-04T19:06:32.299Z,58.50
2022-11-04T19:09:13.336Z,58.60
2022-11-04T19:11:48.735Z,58.50
2022-11-04T19:14:19.008Z,58.30
2022-11-04T19:16:45.793Z,57.80
2022-11-04T19:19:17.884Z,57.30
2022-11-04T19:21:45.728Z,57.20
2022-11-04T19:24:12.531Z,56.60
2022-11-04T19:26:40.942Z,56.60
2022-11-04T19:29:08.006Z,56.50
2022-11-04T19:31:35.076Z,56.50
2022-11-04T19:34:07.096Z,56.50
2022-11-04T19:36:35.646Z,56.40
2022-11-04T19:39:02.373Z,56.50
2022-11-04T19:41:47.893Z,56.40
2022-11-04T19:44:16.972Z,56.40
2022-11-04T19:46:44.510Z,56.60
2022-11-04T19:49:12.557Z,57.10
2022-11-04T19:51:40.340Z,57.30
2022-11-04T19:54:07.599Z,57.60
2022-11-04T19:56:36.529Z,57.60
2022-11-04T19:59:06.412Z,57.40
2022-11-04T20:01:35.155Z,58.00
2022-11-04T20:04:04.117Z,57.50
2022-11-04T20:06:33.036Z,57.60
2022-11-04T20:09:07.001Z,57.40
2022-11-04T20:11:34.890Z,57.70
2022-11-04T20:14:07.602Z,57.90
2022-11-04T20:16:39.373Z,58.10
2022-11-04T20:19:06.443Z,58.00
2022-11-04T20:21:35.406Z,57.60
2022-11-04T20:24:05.949Z,57.90
2022-11-04T20:26:34.039Z,57.90
2022-11-04T20:29:00.979Z,57.70
2022-11-04T20:31:30.338Z,58.10
2022-11-04T20:33:57.243Z,58.40
2022-11-04T20:36:26.883Z,58.60
2022-11-04T20:38:57.928Z,58.70
2022-11-04T20:41:24.898Z,59.00
2022-11-04T20:43:52.398Z,59.00
2022-11-04T20:46:22.016Z,58.90
2022-11-04T20:48:50.327Z,59.00
2022-11-04T20:51:20.006Z,59.10
2022-11-04T20:53:47.884Z,59.10
2022-11-04T20:56:17.396Z,59.30
2022-11-04T20:58:45.203Z,59.20
2022-11-04T21:01:18.361Z,59.00
2022-11-04T21:03:45.483Z,58.80
2022-11-04T21:06:12.810Z,58.60
2022-11-04T21:08:39.992Z,58.70
2022-11-04T21:11:08.086Z,58.80
2022-11-04T21:13:34.932Z,58.70
2022-11-04T21:16:02.540Z,59.00
2022-11-04T21:18:29.729Z,59.10
2022-11-04T21:20:57.505Z,59.10
2022-11-04T21:23:24.958Z,59.20
2022-11-04T21:25:56.047Z,59.40
2022-11-04T21:28:23.684Z,59.50
2022-11-04T21:30:52.499Z,59.50
2022-11-04T21:33:19.585Z,59.60
2022-11-04T21:35:50.423Z,59.70
2022-11-04T21:38:18.379Z,60.10
2022-11-04T21:40:45.366Z,60.40
2022-11-04T21:43:13.190Z,60.30
2022-11-04T21:45:39.961Z,60.70
2022-11-04T21:48:07.044Z,60.80
2022-11-04T21:50:33.988Z,61.00
2022-11-04T21:53:01.417Z,61.10
2022-11-04T21:55:28.200Z,61.10
2022-11-04T21:57:54.931Z,61.10
2022-11-04T22:00:21.775Z,61.20
2022-11-04T22:02:51.539Z,61.60
2022-11-04T22:05:18.565Z,61.70
2022-11-04T22:08:03.867Z,61.80
2022-11-04T22:10:30.645Z,61.80
2022-11-04T22:12:57.437Z,61.50
2022-11-04T22:15:42.944Z,61.60
2022-11-04T22:18:09.716Z,61.50
2022-11-04T22:20:37.352Z,61.30
2022-11-04T22:23:04.272Z,61.50
2022-11-04T22:25:31.278Z,61.40
2022-11-04T22:27:58.284Z,61.70
2022-11-04T22:30:25.359Z,61.70
2022-11-04T22:32:52.893Z,62.00
2022-11-04T22:35:19.801Z,62.00
2022-11-04T22:37:46.672Z,61.90
2022-11-04T22:40:13.499Z,62.20
2022-11-04T22:42:40.286Z,62.20
2022-11-04T22:45:09.224Z,62.40
2022-11-04T22:47:39.326Z,62.50
2022-11-04T22:50:06.401Z,62.40
2022-11-04T22:52:33.186Z,62.60
2022-11-04T22:55:00.308Z,62.80
2022-11-04T22:57:27.130Z,62.80
2022-11-04T22:59:53.901Z,63.10
2022-11-04T23:02:20.866Z,63.20
2022-11-04T23:04:47.724Z,63.30
2022-11-04T23:07:14.826Z,63.40
2022-11-04T23:10:00.401Z,63.70
2022-11-04T23:12:45.902Z,63.90
2022-11-04T23:15:31.249Z,63.60
2022-11-04T23:18:16.704Z,63.50
2022-11-04T23:20:43.435Z,63.10
2022-11-04T23:23:28.671Z,62.90
2022-11-04T23:25:55.416Z,62.90
2022-11-04T23:28:40.604Z,62.90
2022-11-04T23:31:07.384Z,63.20
2022-11-04T23:33:52.658Z,63.30
2022-11-04T23:36:37.896Z,63.20
2022-11-04T23:39:04.656Z,62.90
2022-11-04T23:41:49.819Z,62.40
2022-11-04T23:44:36.561Z,62.30
2022-11-04T23:47:38.295Z,62.10
2022-11-04T23:50:28.519Z,62.40
2022-11-04T23:53:13.916Z,62.30
2022-11-04T23:55:59.438Z,62.50
2022-11-04T23:58:45.152Z,62.80
